METAR Data
IDs: Format: Raw Decoded Include TAF

Data at: 0231 UTC 25 Feb 2021

LIRQ 250220Z 12004KT CAVOK 06/04 Q1032